createdAt,value
2019-04-03T00:00:32.812Z,79.54
2019-04-03T00:01:32.746Z,79.75
2019-04-03T00:02:34.023Z,79.85
2019-04-03T00:03:32.579Z,79.85
2019-04-03T00:04:33.976Z,79.85
2019-04-03T00:05:31.729Z,79.68
2019-04-03T00:06:31.721Z,79.75
2019-04-03T00:07:31.734Z,79.85
2019-04-03T00:08:31.700Z,79.85
2019-04-03T00:09:31.694Z,80.26
2019-04-03T00:10:31.674Z,79.96
2019-04-03T00:11:31.667Z,80.05
2019-04-03T00:12:31.824Z,80.46
2019-04-03T00:13:31.648Z,80.43
2019-04-03T00:14:31.630Z,80.05
2019-04-03T00:15:31.687Z,79.64
2019-04-03T00:16:31.607Z,79.75
2019-04-03T00:17:31.627Z,79.03
2019-04-03T00:18:31.596Z,80.16
2019-04-03T00:19:31.581Z,80.16
2019-04-03T00:20:31.678Z,79.41
2019-04-03T00:21:31.548Z,79.61
2019-04-03T00:22:31.567Z,79.71
2019-04-03T00:23:31.531Z,79.82
2019-04-03T00:24:31.518Z,79.64
2019-04-03T00:25:31.504Z,79.00
2019-04-03T00:26:31.492Z,79.30
2019-04-03T00:27:31.497Z,79.20
2019-04-03T00:28:31.495Z,79.00
2019-04-03T00:29:31.463Z,77.87
2019-04-03T00:30:31.450Z,77.05
2019-04-03T00:31:31.436Z,76.84
2019-04-03T00:32:31.433Z,77.26
2019-04-03T00:33:31.437Z,76.95
2019-04-03T00:34:31.403Z,76.75
2019-04-03T00:35:31.395Z,77.46
2019-04-03T00:36:31.381Z,77.15
2019-04-03T00:37:31.377Z,76.64
2019-04-03T00:38:31.385Z,76.03
2019-04-03T00:39:31.350Z,76.54
2019-04-03T00:40:31.344Z,76.64
2019-04-03T00:41:31.323Z,77.15
2019-04-03T00:42:31.313Z,76.95
2019-04-03T00:43:31.330Z,77.36
2019-04-03T00:44:31.293Z,78.79
2019-04-03T00:45:31.279Z,79.30
2019-04-03T00:46:31.278Z,79.71
2019-04-03T00:47:31.261Z,80.53
2019-04-03T00:48:31.268Z,81.04
2019-04-03T00:49:31.238Z,80.83
2019-04-03T00:50:31.221Z,81.38
2019-04-03T00:51:31.209Z,81.45
2019-04-03T00:52:31.201Z,82.10
2019-04-03T00:53:31.221Z,82.00
2019-04-03T00:54:31.594Z,81.90
2019-04-03T00:55:31.164Z,81.79
2019-04-03T00:56:31.157Z,82.31
2019-04-03T00:57:31.147Z,81.49
2019-04-03T00:58:31.159Z,81.59
2019-04-03T00:59:31.121Z,81.32
2019-04-03T01:00:31.109Z,80.77
2019-04-03T01:01:31.100Z,81.08
2019-04-03T01:02:31.085Z,81.59
2019-04-03T01:03:31.089Z,81.29
2019-04-03T01:04:31.086Z,81.38
2019-04-03T01:05:31.069Z,80.57
2019-04-03T01:06:31.044Z,80.57
2019-04-03T01:07:31.030Z,80.51
2019-04-03T01:08:31.017Z,80.67
2019-04-03T01:09:31.030Z,79.64
2019-04-03T01:10:30.994Z,79.64
2019-04-03T01:11:31.110Z,79.64
2019-04-03T01:12:31.521Z,80.16
2019-04-03T01:13:31.342Z,75.45
2019-04-03T01:14:31.574Z,75.45
2019-04-03T01:15:31.599Z,74.94
2019-04-03T01:16:33.032Z,75.65
2019-04-03T01:17:30.918Z,76.37
2019-04-03T01:18:31.036Z,76.92
2019-04-03T01:19:30.928Z,77.19
2019-04-03T01:20:30.882Z,76.06
2019-04-03T01:21:31.051Z,76.72
2019-04-03T01:22:30.860Z,75.55
2019-04-03T01:23:30.850Z,76.27
2019-04-03T01:24:30.889Z,76.78
2019-04-03T01:25:30.827Z,76.81
2019-04-03T01:26:30.816Z,77.12
2019-04-03T01:27:30.876Z,77.09
2019-04-03T01:28:30.793Z,77.29
2019-04-03T01:29:30.804Z,77.12
2019-04-03T01:30:30.773Z,77.23
2019-04-03T01:31:30.763Z,77.94
2019-04-03T01:32:30.758Z,76.81
2019-04-03T01:33:30.751Z,77.02
2019-04-03T01:34:30.798Z,77.53
2019-04-03T01:35:30.715Z,77.23
2019-04-03T01:36:30.704Z,77.02
2019-04-03T01:37:30.693Z,76.81
2019-04-03T01:38:30.681Z,75.79
2019-04-03T01:39:30.698Z,75.01
2019-04-03T01:40:30.664Z,75.18
2019-04-03T01:41:30.645Z,74.19
2019-04-03T01:42:30.646Z,73.57
2019-04-03T01:43:30.626Z,73.98
2019-04-03T01:44:30.751Z,73.47
2019-04-03T01:45:30.636Z,72.96
2019-04-03T01:46:30.590Z,73.88
2019-04-03T01:47:30.578Z,72.96
2019-04-03T01:48:30.565Z,72.55
2019-04-03T01:49:30.684Z,74.08
2019-04-03T01:50:30.567Z,72.75
2019-04-03T01:51:30.643Z,72.86
2019-04-03T01:52:31.869Z,71.56
2019-04-03T01:53:32.184Z,71.62
2019-04-03T01:54:31.605Z,72.27
2019-04-03T01:55:30.515Z,71.66
2019-04-03T01:56:30.514Z,71.86
2019-04-03T01:57:30.514Z,71.86
2019-04-03T01:58:30.456Z,72.38
2019-04-03T01:59:30.560Z,70.94
2019-04-03T02:00:30.456Z,71.45
2019-04-03T02:01:30.420Z,71.45
2019-04-03T02:02:30.410Z,70.73
2019-04-03T02:03:30.444Z,71.15
2019-04-03T02:04:30.385Z,70.02
2019-04-03T02:05:30.470Z,70.12
2019-04-03T02:06:30.362Z,70.53
2019-04-03T02:07:30.354Z,70.53
2019-04-03T02:08:30.342Z,71.35
2019-04-03T02:09:30.329Z,70.53
2019-04-03T02:10:30.340Z,69.92
2019-04-03T02:11:30.403Z,70.02
2019-04-03T02:12:30.297Z,70.43
2019-04-03T02:13:30.281Z,70.46
2019-04-03T02:14:30.272Z,70.43
2019-04-03T02:15:30.265Z,70.94
2019-04-03T02:16:30.302Z,70.94
2019-04-03T02:17:30.239Z,71.04
2019-04-03T02:18:30.226Z,70.94
2019-04-03T02:19:30.260Z,71.08
2019-04-03T02:20:30.230Z,70.53
2019-04-03T02:21:30.196Z,71.04
2019-04-03T02:22:30.183Z,71.28
2019-04-03T02:23:30.800Z,71.56
2019-04-03T02:24:31.759Z,71.56
2019-04-03T02:25:32.145Z,71.66
2019-04-03T02:26:30.759Z,71.97
2019-04-03T02:27:30.182Z,71.86
2019-04-03T02:28:30.114Z,71.97
2019-04-03T02:29:30.106Z,71.97
2019-04-03T02:30:30.094Z,71.80
2019-04-03T02:31:30.102Z,72.38
2019-04-03T02:32:30.302Z,72.99
2019-04-03T02:33:30.302Z,72.17
2019-04-03T02:34:33.725Z,73.10
2019-04-03T02:35:31.368Z,73.19
2019-04-03T02:36:30.168Z,71.86
2019-04-03T02:37:30.013Z,72.58
2019-04-03T02:38:30.002Z,71.66
2019-04-03T02:39:30.007Z,72.17
2019-04-03T02:40:32.696Z,71.86
2019-04-03T02:41:29.989Z,71.56
2019-04-03T02:42:30.015Z,71.97
2019-04-03T02:43:29.946Z,71.97
2019-04-03T02:44:30.074Z,71.25
2019-04-03T02:45:29.922Z,71.15
2019-04-03T02:46:29.935Z,71.25
2019-04-03T02:47:32.412Z,71.45
2019-04-03T02:48:29.893Z,72.03
2019-04-03T02:49:29.900Z,71.45
2019-04-03T02:50:29.974Z,71.76
2019-04-03T02:51:29.880Z,72.17
2019-04-03T02:52:29.842Z,71.56
2019-04-03T02:53:31.143Z,71.66
2019-04-03T02:54:29.961Z,71.45
2019-04-03T02:55:29.935Z,71.35
2019-04-03T02:56:29.810Z,71.66
2019-04-03T02:57:29.989Z,71.76
2019-04-03T02:58:30.098Z,71.66
2019-04-03T02:59:29.810Z,71.15
2019-04-03T03:00:33.117Z,71.15
2019-04-03T03:01:29.749Z,71.25
2019-04-03T03:02:30.163Z,70.94
2019-04-03T03:03:29.972Z,71.04
2019-04-03T03:04:29.710Z,71.56
2019-04-03T03:05:29.697Z,71.66
2019-04-03T03:06:32.737Z,71.80
2019-04-03T03:07:29.842Z,71.04
2019-04-03T03:08:29.978Z,71.80
2019-04-03T03:09:29.656Z,71.35
2019-04-03T03:10:31.730Z,71.48
2019-04-03T03:11:29.627Z,71.48
2019-04-03T03:12:29.858Z,71.69
2019-04-03T03:13:33.688Z,70.94
2019-04-03T03:14:29.768Z,71.35
2019-04-03T03:15:29.583Z,71.45
2019-04-03T03:16:29.578Z,71.28
2019-04-03T03:17:29.590Z,71.90
2019-04-03T03:18:29.555Z,71.35
2019-04-03T03:19:31.858Z,71.45
2019-04-03T03:20:29.816Z,71.48
2019-04-03T03:21:29.535Z,71.28
2019-04-03T03:22:29.766Z,70.84
2019-04-03T03:23:29.494Z,71.28
2019-04-03T03:24:30.099Z,71.66
2019-04-03T03:25:32.100Z,71.56
2019-04-03T03:26:29.667Z,71.18
2019-04-03T03:27:29.474Z,71.25
2019-04-03T03:28:29.447Z,71.04
2019-04-03T03:29:29.453Z,71.04
2019-04-03T03:30:39.588Z,71.25
2019-04-03T03:31:59.819Z,71.28
2019-04-03T03:32:34.637Z,70.77
2019-04-03T03:33:36.232Z,71.04
2019-04-03T03:34:48.211Z,71.08
2019-04-03T03:35:39.486Z,71.35
2019-04-03T03:36:30.503Z,71.35
2019-04-03T03:37:33.512Z,71.45
2019-04-03T03:38:30.327Z,71.66
2019-04-03T03:39:29.499Z,71.76
2019-04-03T03:40:29.313Z,71.59
2019-04-03T03:41:29.447Z,71.48
2019-04-03T03:42:31.223Z,71.69
2019-04-03T03:43:29.266Z,72.20
2019-04-03T03:44:29.258Z,72.41
2019-04-03T03:45:29.423Z,73.02
2019-04-03T03:46:29.496Z,72.99
2019-04-03T03:47:29.300Z,73.23
2019-04-03T03:48:29.211Z,71.86
2019-04-03T03:49:29.200Z,71.97
2019-04-03T03:50:29.196Z,72.41
2019-04-03T03:51:31.147Z,73.02
2019-04-03T03:52:29.189Z,73.30
2019-04-03T03:53:29.160Z,73.13
2019-04-03T03:54:29.391Z,72.07
2019-04-03T03:55:29.134Z,72.38
2019-04-03T03:56:31.568Z,72.99
2019-04-03T03:57:29.131Z,72.72
2019-04-03T03:58:29.100Z,73.10
2019-04-03T03:59:29.090Z,73.33
2019-04-03T04:00:29.074Z,72.68
2019-04-03T04:01:31.477Z,73.19
2019-04-03T04:02:29.468Z,72.99
2019-04-03T04:03:29.311Z,72.78
2019-04-03T04:04:29.028Z,72.89
2019-04-03T04:05:29.349Z,72.48
2019-04-03T04:06:30.193Z,72.38
2019-04-03T04:07:29.035Z,72.51
2019-04-03T04:08:28.992Z,72.38
2019-04-03T04:09:28.971Z,73.19
2019-04-03T04:10:29.244Z,72.68
2019-04-03T04:11:30.852Z,73.02
2019-04-03T04:12:28.963Z,73.23
2019-04-03T04:13:28.929Z,73.71
2019-04-03T04:14:28.915Z,72.89
2019-04-03T04:15:29.953Z,72.89
2019-04-03T04:16:28.897Z,72.89
2019-04-03T04:17:29.175Z,72.99
2019-04-03T04:18:28.923Z,73.10
2019-04-03T04:19:30.661Z,73.02
2019-04-03T04:20:28.846Z,73.02
2019-04-03T04:21:29.114Z,73.10
2019-04-03T04:22:28.825Z,73.54
2019-04-03T04:23:28.840Z,73.40
2019-04-03T04:24:29.073Z,73.50
2019-04-03T04:25:30.543Z,73.30
2019-04-03T04:26:31.286Z,73.30
2019-04-03T04:27:28.769Z,74.26
2019-04-03T04:28:28.782Z,73.61
2019-04-03T04:29:28.746Z,72.41
2019-04-03T04:30:28.733Z,72.92
2019-04-03T04:31:28.721Z,72.58
2019-04-03T04:32:29.005Z,73.23
2019-04-03T04:33:28.729Z,72.31
2019-04-03T04:34:28.691Z,72.31
2019-04-03T04:35:28.680Z,73.02
2019-04-03T04:36:28.791Z,73.54
2019-04-03T04:37:28.654Z,73.85
2019-04-03T04:38:28.668Z,74.15
2019-04-03T04:39:29.293Z,72.72
2019-04-03T04:40:28.973Z,74.26
2019-04-03T04:41:28.619Z,74.98
2019-04-03T04:42:28.600Z,74.80
2019-04-03T04:43:28.617Z,74.29
2019-04-03T04:44:28.586Z,74.26
2019-04-03T04:45:28.564Z,75.08
2019-04-03T04:46:28.561Z,75.83
2019-04-03T04:47:28.539Z,75.21
2019-04-03T04:48:28.883Z,75.42
2019-04-03T04:49:28.523Z,76.17
2019-04-03T04:50:28.557Z,77.00
2019-04-03T04:51:28.496Z,78.53
2019-04-03T04:52:28.542Z,78.74
2019-04-03T04:53:29.863Z,79.15
2019-04-03T04:54:30.111Z,79.97
2019-04-03T04:55:30.547Z,79.56
2019-04-03T04:56:28.536Z,79.29
2019-04-03T04:57:28.437Z,79.36
2019-04-03T04:58:28.443Z,79.97
2019-04-03T04:59:28.405Z,80.38
2019-04-03T05:00:29.969Z,80.79
2019-04-03T05:01:28.384Z,81.86
2019-04-03T05:02:28.372Z,82.03
2019-04-03T05:03:28.554Z,83.29
2019-04-03T05:04:28.352Z,83.81
2019-04-03T05:05:30.629Z,84.39
2019-04-03T05:06:29.547Z,83.70
2019-04-03T05:07:28.860Z,83.26
2019-04-03T05:08:28.328Z,83.46
2019-04-03T05:09:28.293Z,82.75
2019-04-03T05:10:28.568Z,82.03
2019-04-03T05:11:28.282Z,83.98
2019-04-03T05:12:28.257Z,85.21
2019-04-03T05:13:28.248Z,85.46
2019-04-03T05:14:28.267Z,85.41
2019-04-03T05:15:28.270Z,85.93
2019-04-03T05:16:28.217Z,86.48
2019-04-03T05:17:28.291Z,86.65
2019-04-03T05:18:29.302Z,86.99
2019-04-03T05:19:28.203Z,86.79
2019-04-03T05:20:28.547Z,86.17
2019-04-03T05:21:28.384Z,85.66
2019-04-03T05:22:28.366Z,85.66
2019-04-03T05:23:28.134Z,87.51
2019-04-03T05:24:28.877Z,87.71
2019-04-03T05:25:29.864Z,86.17
2019-04-03T05:26:28.100Z,85.55
2019-04-03T05:27:28.089Z,85.66
2019-04-03T05:28:28.078Z,85.46
2019-04-03T05:29:28.090Z,85.60
2019-04-03T05:30:28.055Z,85.49
2019-04-03T05:31:28.046Z,85.49
2019-04-03T05:32:28.032Z,85.70
2019-04-03T05:33:28.021Z,85.90
2019-04-03T05:34:28.043Z,85.70
2019-04-03T05:35:27.998Z,86.42
2019-04-03T05:36:28.085Z,86.72
2019-04-03T05:37:28.058Z,87.55
2019-04-03T05:38:27.975Z,87.65
2019-04-03T05:39:27.980Z,87.75
2019-04-03T05:40:27.941Z,88.47
2019-04-03T05:41:28.674Z,88.98
2019-04-03T05:42:29.179Z,88.98
2019-04-03T05:43:30.385Z,89.50
2019-04-03T05:44:27.930Z,89.29
2019-04-03T05:45:28.031Z,88.98
2019-04-03T05:46:27.912Z,89.29
2019-04-03T05:47:27.861Z,88.98
2019-04-03T05:48:27.906Z,88.89
2019-04-03T05:49:27.841Z,87.96
2019-04-03T05:50:27.969Z,88.17
2019-04-03T05:51:29.678Z,88.37
2019-04-03T05:52:27.813Z,88.57
2019-04-03T05:53:27.830Z,88.47
2019-04-03T05:54:27.916Z,88.57
2019-04-03T05:55:27.802Z,88.68
2019-04-03T05:56:27.764Z,88.89
2019-04-03T05:57:29.434Z,88.98
2019-04-03T05:58:27.738Z,88.62
2019-04-03T05:59:27.932Z,87.96
2019-04-03T06:00:27.739Z,88.72
2019-04-03T06:01:27.705Z,89.13
2019-04-03T06:02:27.693Z,89.03
2019-04-03T06:03:38.525Z,88.57
2019-04-03T06:04:28.670Z,89.09
2019-04-03T06:05:27.682Z,89.81
2019-04-03T06:06:27.647Z,90.12
2019-04-03T06:07:27.663Z,89.50
2019-04-03T06:08:27.626Z,90.12
2019-04-03T06:09:27.655Z,89.70
2019-04-03T06:10:28.306Z,90.12
2019-04-03T06:11:27.592Z,90.22
2019-04-03T06:12:27.582Z,89.60
2019-04-03T06:13:27.672Z,89.09
2019-04-03T06:14:27.557Z,89.40
2019-04-03T06:15:27.570Z,89.09
2019-04-03T06:16:27.736Z,89.23
2019-04-03T06:17:27.771Z,89.23
2019-04-03T06:18:28.138Z,89.44
2019-04-03T06:19:27.502Z,89.81
2019-04-03T06:20:27.512Z,90.16
2019-04-03T06:21:27.478Z,90.98
2019-04-03T06:22:27.478Z,90.57
2019-04-03T06:23:27.461Z,89.64
2019-04-03T06:24:27.448Z,89.13
2019-04-03T06:25:30.114Z,89.03
2019-04-03T06:26:27.424Z,88.72
2019-04-03T06:27:28.052Z,88.04
2019-04-03T06:28:27.400Z,88.45
2019-04-03T06:29:27.406Z,88.24
2019-04-03T06:30:27.403Z,88.35
2019-04-03T06:31:27.739Z,88.45
2019-04-03T06:32:29.180Z,88.76
2019-04-03T06:33:27.343Z,88.56
2019-04-03T06:34:27.332Z,88.45
2019-04-03T06:35:27.375Z,89.07
2019-04-03T06:36:27.307Z,89.17
2019-04-03T06:37:27.297Z,88.86
2019-04-03T06:38:27.287Z,88.35
2019-04-03T06:39:30.436Z,88.96
2019-04-03T06:40:27.555Z,88.45
2019-04-03T06:41:27.287Z,88.35
2019-04-03T06:42:27.582Z,87.84
2019-04-03T06:43:29.932Z,88.56
2019-04-03T06:44:27.314Z,89.31
2019-04-03T06:45:27.560Z,89.28
2019-04-03T06:46:29.147Z,89.48
2019-04-03T06:47:27.202Z,89.48
2019-04-03T06:48:27.401Z,90.30
2019-04-03T06:49:27.165Z,90.20
2019-04-03T06:50:27.153Z,90.20
2019-04-03T06:51:27.162Z,89.79
2019-04-03T06:52:27.129Z,90.72
2019-04-03T06:53:28.578Z,90.75
2019-04-03T06:54:27.106Z,90.51
2019-04-03T06:55:27.095Z,91.02
2019-04-03T06:56:27.105Z,90.86
2019-04-03T06:57:27.071Z,90.92
2019-04-03T06:58:36.838Z,90.92
2019-04-03T06:59:28.063Z,91.58
2019-04-03T07:00:27.038Z,91.68
2019-04-03T07:01:27.308Z,90.86
2019-04-03T07:02:27.968Z,90.86
2019-04-03T07:03:27.003Z,91.99
2019-04-03T07:04:26.992Z,91.47
2019-04-03T07:05:27.736Z,91.47
2019-04-03T07:06:26.995Z,91.95
2019-04-03T07:07:34.182Z,92.05
2019-04-03T07:08:33.179Z,92.05
2019-04-03T07:09:35.296Z,91.74
2019-04-03T07:10:27.924Z,92.25
2019-04-03T07:11:26.954Z,92.36
2019-04-03T07:12:27.018Z,91.85
2019-04-03T07:13:29.528Z,92.05
2019-04-03T07:14:27.305Z,92.25
2019-04-03T07:15:26.872Z,92.97
2019-04-03T07:16:28.621Z,92.16
2019-04-03T07:17:26.872Z,92.05
2019-04-03T07:18:27.052Z,90.81
2019-04-03T07:19:26.824Z,90.45
2019-04-03T07:20:26.813Z,90.20
2019-04-03T07:21:27.579Z,91.02
2019-04-03T07:22:27.408Z,90.66
2019-04-03T07:23:28.974Z,90.41
2019-04-03T07:24:26.767Z,91.13
2019-04-03T07:25:26.833Z,91.95
2019-04-03T07:26:26.786Z,91.53
2019-04-03T07:27:26.734Z,91.64
2019-04-03T07:28:26.722Z,91.39
2019-04-03T07:29:26.719Z,91.91
2019-04-03T07:30:26.700Z,91.74
2019-04-03T07:31:26.711Z,91.70
2019-04-03T07:32:26.806Z,91.60
2019-04-03T07:33:28.467Z,91.70
2019-04-03T07:34:26.654Z,91.49
2019-04-03T07:35:26.657Z,91.70
2019-04-03T07:36:26.635Z,91.08
2019-04-03T07:37:26.650Z,90.88
2019-04-03T07:38:26.609Z,90.78
2019-04-03T07:39:26.598Z,90.47
2019-04-03T07:40:26.622Z,90.88
2019-04-03T07:41:26.865Z,90.98
2019-04-03T07:42:26.694Z,91.91
2019-04-03T07:43:27.518Z,91.60
2019-04-03T07:44:27.660Z,91.70
2019-04-03T07:45:26.532Z,91.70
2019-04-03T07:46:26.520Z,90.98
2019-04-03T07:47:27.420Z,91.60
2019-04-03T07:48:26.497Z,91.49
2019-04-03T07:49:26.735Z,91.80
2019-04-03T07:50:26.877Z,91.64
2019-04-03T07:51:26.463Z,91.70
2019-04-03T07:52:26.474Z,91.49
2019-04-03T07:53:26.441Z,91.60
2019-04-03T07:54:27.049Z,91.80
2019-04-03T07:55:27.979Z,91.49
2019-04-03T07:56:26.629Z,91.60
2019-04-03T07:57:26.902Z,91.60
2019-04-03T07:58:26.557Z,91.39
2019-04-03T07:59:26.373Z,91.60
2019-04-03T08:00:26.364Z,91.80
2019-04-03T08:01:26.406Z,91.49
2019-04-03T08:02:26.378Z,91.60
2019-04-03T08:03:26.630Z,91.91
2019-04-03T08:04:27.078Z,91.66
2019-04-03T08:05:26.305Z,91.55
2019-04-03T08:06:26.293Z,91.39
2019-04-03T08:07:26.305Z,91.45
2019-04-03T08:08:26.278Z,90.83
2019-04-03T08:09:26.287Z,90.94
2019-04-03T08:10:27.810Z,90.47
2019-04-03T08:11:26.236Z,90.22
2019-04-03T08:12:26.256Z,90.42
2019-04-03T08:13:26.215Z,90.42
2019-04-03T08:14:26.213Z,91.14
2019-04-03T08:15:26.193Z,90.73
2019-04-03T08:16:26.182Z,90.94
2019-04-03T08:17:26.172Z,91.25
2019-04-03T08:18:26.409Z,91.45
2019-04-03T08:19:26.461Z,91.86
2019-04-03T08:20:26.455Z,91.45
2019-04-03T08:21:26.258Z,91.66
2019-04-03T08:22:26.140Z,91.25
2019-04-03T08:23:26.128Z,91.55
2019-04-03T08:24:26.092Z,91.45
2019-04-03T08:25:26.079Z,91.76
2019-04-03T08:26:27.261Z,91.76
2019-04-03T08:27:26.056Z,92.03
2019-04-03T08:28:29.676Z,91.93
2019-04-03T08:29:26.033Z,91.51
2019-04-03T08:30:26.022Z,91.51
2019-04-03T08:31:26.016Z,90.69
2019-04-03T08:32:26.000Z,90.48
2019-04-03T08:33:27.442Z,90.48
2019-04-03T08:34:26.215Z,89.56
2019-04-03T08:35:25.988Z,89.66
2019-04-03T08:36:26.707Z,90.24
2019-04-03T08:37:30.170Z,89.31
2019-04-03T08:38:27.013Z,89.01
2019-04-03T08:39:26.228Z,88.70
2019-04-03T08:40:25.913Z,89.21
2019-04-03T08:41:25.918Z,88.90
2019-04-03T08:42:27.750Z,88.90
2019-04-03T08:43:25.899Z,88.70
2019-04-03T08:44:25.895Z,90.03
2019-04-03T08:45:26.040Z,89.27
2019-04-03T08:46:25.971Z,90.09
2019-04-03T08:47:25.838Z,89.11
2019-04-03T08:48:25.941Z,89.07
2019-04-03T08:49:26.629Z,88.39
2019-04-03T08:50:26.774Z,88.56
2019-04-03T08:51:25.818Z,88.70
2019-04-03T08:52:25.775Z,88.04
2019-04-03T08:53:25.796Z,87.63
2019-04-03T08:54:26.005Z,87.73
2019-04-03T08:55:25.966Z,88.29
2019-04-03T08:56:25.739Z,88.35
2019-04-03T08:57:25.974Z,87.77
2019-04-03T08:58:26.610Z,87.46
2019-04-03T08:59:26.790Z,87.32
2019-04-03T09:00:25.693Z,87.12
2019-04-03T09:01:25.691Z,87.46
2019-04-03T09:02:25.661Z,87.98
2019-04-03T09:03:26.141Z,86.44
2019-04-03T09:04:25.742Z,86.89
2019-04-03T09:05:25.627Z,86.54
2019-04-03T09:06:25.932Z,86.95
2019-04-03T09:07:25.921Z,87.46
2019-04-03T09:08:26.719Z,85.62
2019-04-03T09:09:27.018Z,86.13
2019-04-03T09:10:25.600Z,86.44
2019-04-03T09:11:25.560Z,86.33
2019-04-03T09:12:25.548Z,85.31
2019-04-03T09:13:25.538Z,82.43
2019-04-03T09:14:26.182Z,81.86
2019-04-03T09:15:25.849Z,83.29
2019-04-03T09:16:25.655Z,83.91
2019-04-03T09:17:25.758Z,83.70
2019-04-03T09:18:25.543Z,85.14
2019-04-03T09:19:25.491Z,85.04
2019-04-03T09:20:25.546Z,85.41
2019-04-03T09:21:25.459Z,83.46
2019-04-03T09:22:25.435Z,84.08
2019-04-03T09:23:25.539Z,84.59
2019-04-03T09:24:25.437Z,84.80
2019-04-03T09:25:25.401Z,83.87
2019-04-03T09:26:25.467Z,83.87
2019-04-03T09:27:25.390Z,83.26
2019-04-03T09:28:25.368Z,83.73
2019-04-03T09:29:25.383Z,84.55
2019-04-03T09:30:25.346Z,83.26
2019-04-03T09:31:25.333Z,82.09
2019-04-03T09:32:25.321Z,81.10
2019-04-03T09:33:26.317Z,81.16
2019-04-03T09:34:28.860Z,82.50
2019-04-03T09:35:25.441Z,82.19
2019-04-03T09:36:25.278Z,83.42
2019-04-03T09:37:25.267Z,83.83
2019-04-03T09:38:25.312Z,84.52
2019-04-03T09:39:25.327Z,83.28
2019-04-03T09:40:25.261Z,80.65
2019-04-03T09:41:25.219Z,81.74
2019-04-03T09:42:25.210Z,82.40
2019-04-03T09:43:25.205Z,81.43
2019-04-03T09:44:25.931Z,81.13
2019-04-03T09:45:27.621Z,82.46
2019-04-03T09:46:25.173Z,81.85
2019-04-03T09:47:25.152Z,81.85
2019-04-03T09:48:25.141Z,81.43
2019-04-03T09:49:25.486Z,82.12
2019-04-03T09:50:25.118Z,82.01
2019-04-03T09:51:25.117Z,81.09
2019-04-03T09:52:37.433Z,79.75
2019-04-03T09:53:26.731Z,79.66
2019-04-03T09:54:27.516Z,80.27
2019-04-03T09:55:25.086Z,80.99
2019-04-03T09:56:25.054Z,81.81
2019-04-03T09:57:25.056Z,80.99
2019-04-03T09:58:25.234Z,79.04
2019-04-03T09:59:25.018Z,78.19
2019-04-03T10:00:25.028Z,79.11
2019-04-03T10:01:24.998Z,76.58
2019-04-03T10:02:24.988Z,76.27
2019-04-03T10:03:24.972Z,76.65
2019-04-03T10:04:26.060Z,77.06
2019-04-03T10:05:24.979Z,75.24
2019-04-03T10:06:25.252Z,75.76
2019-04-03T10:07:24.925Z,77.57
2019-04-03T10:08:24.923Z,79.31
2019-04-03T10:09:25.179Z,79.52
2019-04-03T10:10:25.863Z,79.62
2019-04-03T10:11:24.884Z,79.58
2019-04-03T10:12:24.947Z,79.58
2019-04-03T10:13:26.257Z,78.86
2019-04-03T10:14:27.119Z,79.17
2019-04-03T10:15:24.958Z,79.48
2019-04-03T10:16:24.827Z,78.05
2019-04-03T10:17:24.815Z,77.53
2019-04-03T10:18:25.008Z,79.17
2019-04-03T10:19:24.792Z,79.27
2019-04-03T10:20:24.826Z,79.07
2019-04-03T10:21:24.768Z,77.73
2019-04-03T10:22:25.311Z,77.94
2019-04-03T10:23:26.571Z,78.66
2019-04-03T10:24:24.733Z,79.27
2019-04-03T10:25:24.925Z,79.17
2019-04-03T10:26:24.711Z,79.64
2019-04-03T10:27:24.710Z,77.33
2019-04-03T10:28:24.698Z,78.35
2019-04-03T10:29:24.678Z,78.25
2019-04-03T10:30:24.964Z,77.64
2019-04-03T10:31:24.887Z,75.69
2019-04-03T10:32:27.217Z,76.85
2019-04-03T10:33:24.640Z,74.80
2019-04-03T10:34:24.694Z,75.31
2019-04-03T10:35:24.637Z,77.50
2019-04-03T10:36:24.598Z,78.59
2019-04-03T10:37:24.595Z,79.41
2019-04-03T10:38:24.575Z,77.91
2019-04-03T10:39:24.562Z,77.77
2019-04-03T10:40:25.073Z,78.39
2019-04-03T10:41:27.631Z,78.80
2019-04-03T10:42:24.800Z,78.80
2019-04-03T10:43:24.569Z,77.26
2019-04-03T10:44:24.512Z,78.59
2019-04-03T10:45:24.520Z,78.05
2019-04-03T10:46:24.485Z,78.59
2019-04-03T10:47:30.176Z,77.64
2019-04-03T10:48:25.729Z,78.05
2019-04-03T10:49:24.452Z,77.64
2019-04-03T10:50:24.463Z,77.84
2019-04-03T10:51:24.428Z,78.15
2019-04-03T10:52:24.417Z,77.12
2019-04-03T10:53:24.478Z,77.12
2019-04-03T10:54:25.068Z,77.73
2019-04-03T10:55:25.852Z,77.02
2019-04-03T10:56:24.585Z,76.81
2019-04-03T10:57:24.360Z,76.31
2019-04-03T10:58:24.692Z,75.35
2019-04-03T10:59:24.339Z,76.57
2019-04-03T11:00:28.454Z,76.57
2019-04-03T11:01:24.444Z,76.68
2019-04-03T11:02:24.397Z,76.78
2019-04-03T11:03:26.202Z,75.45
2019-04-03T11:04:24.282Z,76.06
2019-04-03T11:05:24.301Z,74.29
2019-04-03T11:06:24.259Z,73.78
2019-04-03T11:07:24.565Z,73.20
2019-04-03T11:08:24.239Z,72.78
2019-04-03T11:09:24.558Z,73.81
2019-04-03T11:10:25.308Z,73.40
2019-04-03T11:11:24.246Z,74.84
2019-04-03T11:12:24.211Z,74.94
2019-04-03T11:13:24.180Z,75.45
2019-04-03T11:14:24.176Z,75.96
2019-04-03T11:15:24.184Z,76.06
2019-04-03T11:16:24.172Z,75.35
2019-04-03T11:17:25.644Z,76.78
2019-04-03T11:18:24.139Z,75.45
2019-04-03T11:19:24.298Z,75.65
2019-04-03T11:20:24.131Z,76.68
2019-04-03T11:21:24.315Z,76.78
2019-04-03T11:22:24.449Z,75.65
2019-04-03T11:23:36.954Z,72.69
2019-04-03T11:24:25.058Z,72.92
2019-04-03T11:25:24.067Z,73.64
2019-04-03T11:26:25.112Z,74.56
2019-04-03T11:27:40.274Z,74.87
2019-04-03T11:28:25.016Z,75.45
2019-04-03T11:29:24.014Z,75.18
2019-04-03T11:30:24.940Z,75.55
2019-04-03T11:31:28.030Z,75.65
2019-04-03T11:32:23.971Z,75.86
2019-04-03T11:33:23.953Z,75.35
2019-04-03T11:34:23.978Z,74.32
2019-04-03T11:35:23.975Z,74.32
2019-04-03T11:36:25.638Z,74.22
2019-04-03T11:37:24.072Z,72.48
2019-04-03T11:38:27.997Z,72.75
2019-04-03T11:39:24.887Z,74.32
2019-04-03T11:40:25.348Z,75.10
2019-04-03T11:41:24.497Z,75.21
2019-04-03T11:42:27.462Z,73.88
2019-04-03T11:43:25.246Z,75.31
2019-04-03T11:44:23.831Z,75.10
2019-04-03T11:45:23.854Z,75.31
2019-04-03T11:46:24.160Z,74.94
2019-04-03T11:47:23.794Z,75.42
2019-04-03T11:48:26.648Z,74.60
2019-04-03T11:49:23.781Z,74.66
2019-04-03T11:50:25.056Z,73.94
2019-04-03T11:51:23.773Z,73.03
2019-04-03T11:52:23.752Z,73.47
2019-04-03T11:53:23.807Z,72.21
2019-04-03T11:54:23.895Z,73.98
2019-04-03T11:55:23.722Z,73.85
2019-04-03T11:56:23.921Z,73.44
2019-04-03T11:57:26.617Z,72.92
2019-04-03T11:58:23.670Z,73.03
2019-04-03T11:59:24.406Z,72.82
2019-04-03T12:00:23.652Z,72.62
2019-04-03T12:01:23.662Z,72.41
2019-04-03T12:02:23.860Z,73.33
2019-04-03T12:03:23.614Z,73.44
2019-04-03T12:04:23.605Z,73.94
2019-04-03T12:05:23.936Z,73.64
2019-04-03T12:06:23.607Z,72.82
2019-04-03T12:07:25.124Z,69.75
2019-04-03T12:08:23.851Z,68.76
2019-04-03T12:09:23.851Z,70.20
2019-04-03T12:10:25.934Z,69.27
2019-04-03T12:11:23.876Z,69.89
2019-04-03T12:12:23.846Z,70.20
2019-04-03T12:13:23.800Z,67.74
2019-04-03T12:14:23.693Z,68.38
2019-04-03T12:15:23.682Z,68.59
2019-04-03T12:16:24.772Z,69.41
2019-04-03T12:17:23.479Z,70.94
2019-04-03T12:18:23.444Z,71.53
2019-04-03T12:19:23.564Z,72.65
2019-04-03T12:20:23.424Z,71.73
2019-04-03T12:21:23.410Z,70.91
2019-04-03T12:22:23.423Z,71.22
2019-04-03T12:23:25.625Z,71.62
2019-04-03T12:24:23.376Z,70.81
2019-04-03T12:25:23.366Z,71.22
2019-04-03T12:26:23.357Z,72.24
2019-04-03T12:27:23.392Z,73.27
2019-04-03T12:28:23.330Z,73.36
2019-04-03T12:29:23.324Z,73.68
2019-04-03T12:30:26.411Z,74.15
2019-04-03T12:31:23.625Z,73.44
2019-04-03T12:32:36.138Z,72.11
2019-04-03T12:33:24.275Z,72.34
2019-04-03T12:34:23.889Z,69.85
2019-04-03T12:35:23.257Z,70.40
2019-04-03T12:36:23.245Z,71.49
2019-04-03T12:37:25.024Z,71.19
2019-04-03T12:38:23.763Z,71.80
2019-04-03T12:39:24.803Z,72.21
2019-04-03T12:40:23.195Z,71.80
2019-04-03T12:41:23.187Z,72.72
2019-04-03T12:42:23.401Z,72.82
2019-04-03T12:43:23.162Z,72.62
2019-04-03T12:44:23.419Z,72.92
2019-04-03T12:45:26.152Z,73.03
2019-04-03T12:46:23.136Z,72.21
2019-04-03T12:47:23.140Z,72.00
2019-04-03T12:48:23.128Z,72.21
2019-04-03T12:49:23.654Z,72.41
2019-04-03T12:50:26.834Z,71.08
2019-04-03T12:51:23.177Z,68.12
2019-04-03T12:52:23.225Z,67.10